Time;durP1;ratioP1;P1;durP2;ratioP2;P2;SDS_P1;SDS_P2;PMS_P1;PMS_P2;Temp;Humidity;BMP_temperature;BMP_pressure;BME280_temperature;BME280_humidity;BME280_pressure;Samples;Min_cycle;Max_cycle;Signal;HPM_P1;HPM_P2
2022/08/09 00:01:07;;;;;;;1.58;1.20;;;35.60;85.10;;;;;;5038305;28;20229;-96
2022/08/09 00:03:40;;;;;;;1.63;1.30;;;35.70;86.60;;;;;;5036140;28;20236;-93
2022/08/09 00:06:34;;;;;;;3.70;1.35;;;35.50;85.80;;;;;;5038415;28;20249;-94
2022/08/09 00:09:08;;;;;;;2.00;1.15;;;35.10;85.30;;;;;;5037727;28;20224;-94
2022/08/09 00:11:43;;;;;;;1.65;1.10;;;34.50;86.30;;;;;;5037889;28;20212;-95
2022/08/09 00:14:34;;;;;;;1.20;1.10;;;34.20;86.60;;;;;;5039286;28;20194;-95
2022/08/09 00:17:10;;;;;;;1.55;1.10;;;33.90;87.40;;;;;;5038908;28;20197;-96
2022/08/09 00:20:01;;;;;;;1.75;1.23;;;33.50;88.30;;;;;;5038614;28;20288;-96
2022/08/09 00:22:33;;;;;;;1.40;1.02;;;33.30;88.00;;;;;;5029298;28;20210;-96
2022/08/09 00:25:12;;;;;;;2.40;1.30;;;33.00;87.20;;;;;;5028784;28;20232;-96
2022/08/09 00:27:52;;;;;;;1.77;1.23;;;32.80;89.80;;;;;;5028285;28;20210;-96
2022/08/09 00:30:24;;;;;;;1.83;1.20;;;32.40;90.30;;;;;;5026440;28;20234;-96
2022/08/09 00:32:57;;;;;;;2.15;1.27;;;32.10;90.60;;;;;;5031611;28;20262;-96
2022/08/09 00:35:28;;;;;;;2.63;1.35;;;31.90;91.10;;;;;;5034827;28;20214;-96
2022/08/09 00:38:14;;;;;;;3.08;1.48;;;31.70;91.60;;;;;;5033656;28;20221;-95
2022/08/09 00:40:52;;;;;;;2.22;1.35;;;31.50;91.50;;;;;;5024515;28;20236;-96
2022/08/09 00:43:29;;;;;;;1.90;1.20;;;31.40;92.10;;;;;;5023963;28;20209;-94
2022/08/09 00:46:21;;;;;;;1.65;1.48;;;31.40;91.90;;;;;;5008809;28;20305;-96
2022/08/09 00:49:13;;;;;;;2.20;1.10;;;31.40;92.60;;;;;;5017944;28;20225;-96
2022/08/09 00:51:47;;;;;;;2.63;1.60;;;31.40;92.10;;;;;;5002344;28;20219;-95
2022/08/09 00:54:25;;;;;;;2.17;1.50;;;31.40;92.80;;;;;;5021557;28;20271;-96
2022/08/09 00:57:09;;;;;;;3.33;1.50;;;31.30;93.40;;;;;;5022114;28;20225;-94
2022/08/09 01:00:08;;;;;;;2.65;1.40;;;31.50;93.80;;;;;;5035314;28;20237;-94
2022/08/09 01:02:57;;;;;;;2.92;1.23;;;31.80;93.10;;;;;;5037919;28;20190;-94
2022/08/09 01:05:36;;;;;;;1.20;1.10;;;32.20;91.60;;;;;;5037826;28;20244;-95
2022/08/09 01:08:39;;;;;;;3.85;1.48;;;32.30;91.20;;;;;;5037687;28;20224;-95
2022/08/09 01:11:27;;;;;;;3.92;1.25;;;32.40;91.00;;;;;;5035593;28;20221;-96
2022/08/09 01:14:08;;;;;;;1.80;1.50;;;32.10;91.40;;;;;;5024396;28;20252;-96
2022/08/09 01:16:49;;;;;;;3.03;1.40;;;32.20;91.50;;;;;;5024354;28;20198;-96
2022/08/09 01:19:30;;;;;;;4.80;1.33;;;32.30;91.20;;;;;;5021572;28;20236;-95
2022/08/09 01:22:55;;;;;;;2.28;1.98;;;32.60;91.00;;;;;;5020640;28;20697;-96
2022/08/09 01:25:44;;;;;;;3.28;1.50;;;32.60;91.00;;;;;;5019166;28;20228;-96
2022/08/09 01:28:27;;;;;;;1.30;1.20;;;32.40;90.00;;;;;;5019797;28;20221;-96
2022/08/09 01:31:01;;;;;;;1.42;1.30;;;32.00;90.90;;;;;;5018986;28;20264;-96
2022/08/09 01:33:42;;;;;;;1.92;1.20;;;31.80;90.80;;;;;;5022888;28;20206;-96
2022/08/09 01:36:19;;;;;;;1.05;1.02;;;31.70;90.50;;;;;;5020237;28;20209;-96
2022/08/09 01:38:53;;;;;;;3.45;1.08;;;31.40;90.20;;;;;;5020106;28;20209;-96
2022/08/09 01:41:27;;;;;;;2.10;1.08;;;31.30;89.80;;;;;;5021040;28;20217;-96
2022/08/09 01:44:06;;;;;;;1.30;0.95;;;31.20;90.20;;;;;;5019179;28;20224;-96
2022/08/09 01:46:41;;;;;;;1.95;1.25;;;31.40;90.50;;;;;;5018254;28;20216;-96
2022/08/09 01:49:18;;;;;;;4.75;1.38;;;31.80;88.90;;;;;;5022631;28;20205;-96
2022/08/09 01:51:56;;;;;;;1.75;1.15;;;31.80;87.80;;;;;;5018156;28;20241;-96
2022/08/09 01:54:41;;;;;;;2.85;1.52;;;31.50;90.10;;;;;;5021833;28;20293;-96
2022/08/09 01:57:20;;;;;;;1.98;1.08;;;31.00;89.10;;;;;;5022588;28;20205;-96
2022/08/09 02:00:15;;;;;;;1.35;1.00;;;30.50;89.70;;;;;;5020883;28;20221;-96
2022/08/09 02:03:15;;;;;;;1.90;1.27;;;30.50;91.30;;;;;;5024020;28;20233;-96
2022/08/09 02:06:11;;;;;;;1.92;1.35;;;30.20;90.70;;;;;;5021846;28;20293;-96
2022/08/09 02:08:48;;;;;;;1.30;1.20;;;30.00;91.10;;;;;;5020968;28;20216;-96
2022/08/09 02:11:30;;;;;;;2.08;1.60;;;29.90;91.80;;;;;;5016633;28;20257;-96
2022/08/09 02:14:15;;;;;;;1.20;1.10;;;29.70;93.40;;;;;;5017654;28;20550;-96
2022/08/09 02:16:59;;;;;;;3.97;1.35;;;29.60;94.80;;;;;;5018962;28;20212;-96
2022/08/09 02:19:51;;;;;;;2.22;1.58;;;29.50;95.80;;;;;;5018542;28;20233;-96
2022/08/09 02:22:31;;;;;;;1.85;1.65;;;29.10;96.40;;;;;;5017741;28;20217;-96
2022/08/09 02:25:11;;;;;;;2.90;1.70;;;28.90;96.80;;;;;;5017735;28;20215;-96
2022/08/09 02:27:52;;;;;;;1.60;1.40;;;28.70;97.60;;;;;;5020050;28;20236;-96
2022/08/09 02:30:34;;;;;;;4.10;1.80;;;28.60;97.80;;;;;;5018996;28;20233;-96
2022/08/09 02:33:12;;;;;;;3.07;1.80;;;28.40;98.00;;;;;;5020083;28;20205;-96
2022/08/09 02:35:58;;;;;;;3.97;1.57;;;28.30;99.10;;;;;;5019147;28;20213;-96
2022/08/09 02:38:37;;;;;;;3.13;1.70;;;28.20;98.70;;;;;;5019585;28;20620;-96
2022/08/09 02:41:20;;;;;;;4.20;1.60;;;28.20;99.10;;;;;;5017357;28;20209;-96
2022/08/09 02:43:54;;;;;;;2.20;1.60;;;28.10;99.50;;;;;;5017489;28;20204;-96
2022/08/09 02:49:29;;;;;;;1.57;1.33;;;27.70;99.90;;;;;;5019575;28;20235;-96
2022/08/09 02:52:14;;;;;;;2.63;1.30;;;27.60;99.90;;;;;;5016643;28;20241;-96
2022/08/09 02:54:48;;;;;;;2.07;1.63;;;27.50;99.90;;;;;;5048121;23;20311;-96
2022/08/09 02:57:32;;;;;;;2.33;1.50;;;27.40;99.90;;;;;;5018256;28;20268;-96
2022/08/09 03:00:25;;;;;;;3.00;1.60;;;27.40;99.90;;;;;;5017352;28;20272;-96
2022/08/09 03:03:02;;;;;;;3.40;1.60;;;27.30;99.90;;;;;;5017581;28;20217;-96
2022/08/09 03:05:43;;;;;;;2.30;1.50;;;27.30;99.90;;;;;;5017592;28;20240;-96
2022/08/09 03:08:18;;;;;;;2.20;1.53;;;27.10;99.90;;;;;;5017485;28;20218;-96
2022/08/09 03:10:54;;;;;;;1.83;1.40;;;27.00;99.90;;;;;;5017593;28;20601;-96
2022/08/09 03:13:27;;;;;;;1.93;1.23;;;26.80;99.90;;;;;;5020973;28;20671;-96
2022/08/09 03:16:20;;;;;;;3.13;1.50;;;26.70;99.90;;;;;;5020949;28;20289;-96
2022/08/09 03:18:55;;;;;;;5.03;1.70;;;26.50;99.90;;;;;;5020526;28;20268;-96
2022/08/09 03:21:36;;;;;;;2.37;1.50;;;26.40;99.90;;;;;;5018592;28;20206;-96
2022/08/09 03:24:09;;;;;;;2.17;1.50;;;26.20;99.90;;;;;;5001298;28;20210;-96
2022/08/09 03:26:48;;;;;;;4.67;1.60;;;26.10;99.90;;;;;;5000659;28;20225;-96
2022/08/09 03:29:24;;;;;;;2.23;1.80;;;26.00;99.90;;;;;;5016650;28;20677;-96
2022/08/09 03:32:06;;;;;;;3.00;1.73;;;25.80;99.90;;;;;;5000274;28;20226;-96
2022/08/09 03:34:38;;;;;;;2.57;1.70;;;25.70;99.90;;;;;;5001286;28;20234;-96
2022/08/09 03:37:13;;;;;;;2.80;1.80;;;25.60;99.90;;;;;;5003527;28;20659;-96
2022/08/09 03:40:06;;;;;;;2.77;1.97;;;25.50;99.90;;;;;;5004845;28;20238;-96
2022/08/09 03:42:43;;;;;;;4.40;2.20;;;25.40;99.90;;;;;;5008487;28;20237;-96
2022/08/09 03:45:16;;;;;;;4.30;2.33;;;25.30;99.90;;;;;;5011200;28;20216;-96
2022/08/09 03:48:12;;;;;;;4.97;2.87;;;25.10;99.90;;;;;;5020599;28;20577;-96
2022/08/09 03:51:03;;;;;;;5.17;3.17;;;25.00;99.90;;;;;;5007360;28;20238;-96
2022/08/09 03:54:00;;;;;;;5.23;3.10;;;24.90;99.90;;;;;;5019358;28;20218;-96
2022/08/09 03:56:40;;;;;;;6.70;2.30;;;24.80;99.90;;;;;;5008012;28;20210;-96
2022/08/09 03:59:20;;;;;;;2.83;2.00;;;24.70;99.90;;;;;;5022525;28;20210;-96
2022/08/09 04:02:22;;;;;;;3.67;2.07;;;24.60;99.90;;;;;;5003997;28;20218;-96
2022/08/09 04:05:00;;;;;;;2.70;2.00;;;24.50;99.90;;;;;;5006309;28;20201;-96
2022/08/09 04:07:35;;;;;;;2.50;1.97;;;24.40;99.90;;;;;;5002674;28;20217;-96
2022/08/09 04:10:29;;;;;;;5.53;2.33;;;24.30;99.90;;;;;;5000718;28;20559;-96
2022/08/09 04:13:08;;;;;;;4.57;2.50;;;24.20;99.90;;;;;;5000863;28;20284;-96
2022/08/09 04:15:43;;;;;;;6.27;1.87;;;24.10;99.90;;;;;;5001453;28;20221;-96
2022/08/09 04:18:35;;;;;;;5.67;1.83;;;24.00;99.90;;;;;;5000625;28;20274;-96
2022/08/09 04:21:08;;;;;;;4.70;1.93;;;24.00;99.90;;;;;;4999917;28;20222;-96
2022/08/09 04:23:42;;;;;;;3.97;2.13;;;23.90;99.90;;;;;;5016047;28;20305;-96
2022/08/09 04:26:29;;;;;;;4.20;2.20;;;23.80;99.90;;;;;;5020402;28;20209;-96
2022/08/09 04:29:08;;;;;;;4.17;1.90;;;23.70;99.90;;;;;;5019811;28;20220;-96
2022/08/09 04:31:45;;;;;;;3.23;2.00;;;23.60;99.90;;;;;;5019524;28;20229;-96
2022/08/09 04:34:18;;;;;;;3.90;2.13;;;23.60;99.90;;;;;;5020642;28;20221;-96
2022/08/09 04:37:03;;;;;;;4.80;2.50;;;23.50;99.90;;;;;;5022465;28;20209;-96
2022/08/09 04:39:36;;;;;;;3.10;2.10;;;23.50;99.90;;;;;;5023722;28;20255;-96
2022/08/09 04:42:16;;;;;;;5.60;1.87;;;23.40;99.90;;;;;;5024777;28;20209;-96
2022/08/09 04:44:48;;;;;;;3.37;1.47;;;23.40;99.90;;;;;;5025454;28;20305;-96
2022/08/09 04:47:23;;;;;;;3.00;2.30;;;23.30;99.90;;;;;;5026100;28;20225;-96
2022/08/09 04:50:02;;;;;;;2.37;1.70;;;23.30;99.90;;;;;;5010409;28;20221;-96
2022/08/09 04:52:35;;;;;;;5.23;2.90;;;23.20;99.90;;;;;;5026331;28;20284;-96
2022/08/09 04:55:09;;;;;;;4.53;2.00;;;23.10;99.90;;;;;;5036152;28;20197;-96
2022/08/09 04:57:45;;;;;;;4.33;1.90;;;23.10;99.90;;;;;;5037586;28;20221;-96
2022/08/09 05:00:33;;;;;;;2.90;1.37;;;23.00;99.90;;;;;;5037653;28;20200;-96
2022/08/09 05:03:08;;;;;;;2.53;1.63;;;22.90;99.90;;;;;;5035239;28;20209;-96
2022/08/09 05:05:59;;;;;;;3.53;1.67;;;22.80;99.90;;;;;;5038173;28;20193;-96
2022/08/09 05:08:37;;;;;;;3.77;1.70;;;22.80;99.90;;;;;;5038292;28;20211;-96
2022/08/09 05:11:17;;;;;;;2.27;1.40;;;22.70;99.90;;;;;;5030753;28;20205;-96
2022/08/09 05:13:55;;;;;;;2.23;1.70;;;22.70;99.90;;;;;;5023263;28;20220;-96
2022/08/09 05:16:30;;;;;;;3.03;1.50;;;22.70;99.90;;;;;;5023596;28;20264;-96
2022/08/09 05:19:14;;;;;;;2.13;1.57;;;22.60;99.90;;;;;;5021486;28;20213;-96
2022/08/09 05:21:52;;;;;;;2.43;1.90;;;22.60;99.90;;;;;;5018034;28;20275;-96
2022/08/09 05:24:25;;;;;;;2.43;1.60;;;22.50;99.90;;;;;;5018516;28;20240;-96
2022/08/09 05:26:57;;;;;;;2.07;1.77;;;22.40;99.90;;;;;;5018022;28;20260;-96
2022/08/09 05:29:32;;;;;;;4.63;1.97;;;22.40;99.90;;;;;;5018533;28;20240;-96
2022/08/09 05:32:06;;;;;;;4.77;2.03;;;22.40;99.90;;;;;;5020806;28;20240;-96
2022/08/09 05:34:46;;;;;;;3.13;1.73;;;22.40;99.90;;;;;;5021595;28;20205;-96
2022/08/09 05:37:19;;;;;;;2.17;1.50;;;22.30;99.90;;;;;;5017528;28;20189;-96
2022/08/09 05:39:51;;;;;;;1.90;1.70;;;22.30;99.90;;;;;;5020010;28;20210;-96
2022/08/09 05:42:23;;;;;;;2.77;1.70;;;22.30;99.90;;;;;;5021425;28;20217;-96
2022/08/09 05:45:00;;;;;;;4.77;2.90;;;22.20;99.90;;;;;;5022709;28;20222;-96
2022/08/09 05:47:32;;;;;;;3.63;2.67;;;22.20;99.90;;;;;;5019805;28;20614;-96
2022/08/09 05:50:15;;;;;;;3.27;1.83;;;22.10;99.90;;;;;;5017378;28;20205;-96
2022/08/09 05:53:06;;;;;;;3.37;2.00;;;22.10;99.90;;;;;;5018701;28;20241;-96
2022/08/09 05:56:00;;;;;;;2.83;1.70;;;22.10;99.90;;;;;;5018201;28;20237;-96
2022/08/09 05:58:31;;;;;;;2.73;1.80;;;22.10;99.90;;;;;;5018384;28;20232;-96
2022/08/09 06:01:09;;;;;;;2.57;1.77;;;22.00;99.90;;;;;;5020060;28;20276;-96
2022/08/09 06:03:45;;;;;;;3.20;1.70;;;21.90;99.90;;;;;;5018345;28;20250;-96
2022/08/09 06:06:29;;;;;;;4.50;1.60;;;21.90;99.90;;;;;;5018502;28;20277;-96
2022/08/09 06:09:02;;;;;;;2.53;1.80;;;21.80;99.90;;;;;;5018187;28;20697;-96
2022/08/09 06:11:52;;;;;;;2.07;1.67;;;21.80;99.90;;;;;;5016939;28;20225;-96
2022/08/09 06:14:30;;;;;;;3.37;1.97;;;21.80;99.90;;;;;;5018342;28;20212;-96
2022/08/09 06:17:05;;;;;;;2.43;1.73;;;21.70;99.90;;;;;;5018653;28;20213;-96
2022/08/09 06:19:40;;;;;;;4.67;1.53;;;21.70;99.90;;;;;;5018420;28;20237;-96
2022/08/09 06:22:13;;;;;;;3.80;1.90;;;21.60;99.90;;;;;;5016910;28;20250;-96
2022/08/09 06:24:48;;;;;;;4.20;2.27;;;21.60;99.90;;;;;;5017896;28;20738;-96
2022/08/09 06:27:23;;;;;;;1.53;1.43;;;21.50;99.90;;;;;;5019457;28;20240;-96
2022/08/09 06:30:13;;;;;;;2.60;1.60;;;21.50;99.90;;;;;;5017919;28;20202;-96
2022/08/09 06:32:50;;;;;;;2.00;1.53;;;21.40;99.90;;;;;;5018119;28;20225;-96
2022/08/09 06:35:41;;;;;;;2.40;1.70;;;21.40;99.90;;;;;;5018506;28;20201;-96
2022/08/09 06:38:28;;;;;;;2.87;1.63;;;21.40;99.90;;;;;;5019090;28;20240;-96
2022/08/09 06:41:07;;;;;;;4.00;1.97;;;21.40;99.90;;;;;;5018625;28;20201;-96
2022/08/09 06:43:49;;;;;;;3.00;2.13;;;21.40;99.90;;;;;;5019425;28;20206;-96
2022/08/09 06:46:22;;;;;;;3.67;1.93;;;21.40;99.90;;;;;;5020048;28;20214;-96
2022/08/09 06:49:13;;;;;;;4.90;2.10;;;21.40;99.90;;;;;;5024673;28;20235;-96
2022/08/09 06:51:59;;;;;;;2.33;1.60;;;21.40;99.90;;;;;;5024084;28;20273;-96
2022/08/09 06:54:30;;;;;;;1.80;1.60;;;21.40;99.90;;;;;;5024628;28;20237;-96
2022/08/09 06:57:02;;;;;;;2.73;2.00;;;21.40;99.90;;;;;;5024043;28;20631;-96
2022/08/09 06:59:39;;;;;;;2.37;1.90;;;21.40;99.90;;;;;;5022223;28;20240;-96
2022/08/09 07:02:35;;;;;;;3.60;1.90;;;21.30;99.90;;;;;;5021805;28;20263;-96
2022/08/09 07:05:14;;;;;;;2.77;2.20;;;21.30;99.90;;;;;;5026697;28;20227;-96
2022/08/09 07:07:47;;;;;;;1.93;1.60;;;21.20;99.90;;;;;;5020401;28;20213;-96
2022/08/09 07:10:34;;;;;;;3.40;1.77;;;21.20;99.90;;;;;;5020225;28;20213;-96
2022/08/09 07:13:08;;;;;;;2.73;2.00;;;21.10;99.90;;;;;;5023662;28;20263;-96
2022/08/09 07:15:57;;;;;;;3.07;2.07;;;21.10;99.90;;;;;;5020384;28;20693;-96
2022/08/09 07:18:49;;;;;;;3.80;2.00;;;21.00;99.90;;;;;;5023989;28;20663;-96
2022/08/09 07:21:23;;;;;;;7.80;2.20;;;21.00;99.90;;;;;;5024899;28;20578;-96
2022/08/09 07:24:00;;;;;;;5.17;2.00;;;20.90;99.90;;;;;;5024238;28;20214;-96
2022/08/09 07:26:33;;;;;;;3.53;2.30;;;20.90;99.90;;;;;;5022483;28;20213;-96
2022/08/09 07:29:05;;;;;;;4.00;2.00;;;20.90;99.90;;;;;;5019513;28;20239;-96
2022/08/09 07:31:42;;;;;;;2.27;2.07;;;20.80;99.90;;;;;;5020472;28;20232;-96
2022/08/09 07:34:17;;;;;;;2.30;2.10;;;20.80;99.90;;;;;;5019854;28;20244;-96
2022/08/09 07:36:52;;;;;;;3.37;2.40;;;20.80;99.90;;;;;;5019949;28;20309;-96
2022/08/09 07:39:24;;;;;;;3.60;2.50;;;20.80;99.90;;;;;;5019387;28;20598;-96
2022/08/09 07:42:10;;;;;;;5.10;2.60;;;20.70;99.90;;;;;;5018960;28;20213;-96
2022/08/09 07:44:43;;;;;;;4.63;2.57;;;20.60;99.90;;;;;;5019784;28;20292;-96
2022/08/09 07:47:23;;;;;;;3.70;2.73;;;20.50;99.90;;;;;;5019453;28;20209;-96
2022/08/09 07:49:56;;;;;;;5.10;3.03;;;20.40;99.90;;;;;;5019414;28;20231;-96
2022/08/09 07:52:40;;;;;;;3.73;3.30;;;20.20;99.90;;;;;;5012131;28;20262;-96
2022/08/09 07:55:17;;;;;;;5.27;3.10;;;20.10;99.90;;;;;;4999723;28;20230;-96
2022/08/09 07:57:49;;;;;;;5.00;3.40;;;20.10;99.90;;;;;;4998957;28;20648;-96
2022/08/09 08:00:24;;;;;;;4.00;3.23;;;20.00;99.90;;;;;;4999450;28;20663;-96
2022/08/09 08:03:06;;;;;;;3.77;3.10;;;20.00;99.90;;;;;;4999624;28;20210;-96
2022/08/09 08:05:40;;;;;;;4.37;3.40;;;20.00;99.90;;;;;;5002567;28;20209;-96
2022/08/09 08:08:31;;;;;;;5.17;3.13;;;19.90;99.90;;;;;;4999216;28;20297;-96
2022/08/09 08:11:22;;;;;;;5.80;3.37;;;19.80;99.90;;;;;;5002710;28;20301;-96
2022/08/09 08:14:15;;;;;;;4.37;3.27;;;19.70;99.90;;;;;;5001630;28;20257;-96
2022/08/09 08:16:50;;;;;;;4.27;3.23;;;19.70;99.90;;;;;;5002045;28;20287;-96
2022/08/09 08:19:38;;;;;;;5.57;3.20;;;19.60;99.90;;;;;;5001186;28;20242;-96
2022/08/09 08:22:13;;;;;;;4.97;3.50;;;19.50;99.90;;;;;;5002937;28;20265;-96
2022/08/09 08:24:50;;;;;;;5.00;3.43;;;19.40;99.90;;;;;;4999786;28;20218;-96
2022/08/09 08:27:29;;;;;;;4.60;3.60;;;19.30;99.90;;;;;;5000648;28;20217;-96
2022/08/09 08:30:11;;;;;;;4.50;3.77;;;19.10;99.90;;;;;;5001816;28;20265;-96
2022/08/09 08:32:44;;;;;;;3.53;3.10;;;18.90;99.90;;;;;;4999750;28;20298;-96
2022/08/09 08:35:23;;;;;;;4.47;3.57;;;18.90;99.90;;;;;;4998501;28;20258;-96
2022/08/09 08:38:14;;;;;;;6.10;3.50;;;18.90;99.90;;;;;;5012919;28;20279;-96
2022/08/09 08:40:49;;;;;;;5.37;3.63;;;18.90;99.90;;;;;;5017359;28;20283;-94
2022/08/09 08:43:22;;;;;;;5.80;3.50;;;18.80;99.90;;;;;;5018422;28;20217;-96
2022/08/09 08:46:02;;;;;;;6.97;3.70;;;18.70;99.90;;;;;;5016928;28;20387;-96
2022/08/09 08:48:53;;;;;;;5.47;3.83;;;18.60;99.90;;;;;;5020105;28;20278;-96
2022/08/09 08:51:28;;;;;;;5.40;3.63;;;18.40;99.90;;;;;;5017622;28;20575;-96
2022/08/09 08:54:13;;;;;;;5.10;4.03;;;18.20;99.90;;;;;;4998172;28;20248;-96
2022/08/09 08:56:52;;;;;;;5.40;3.93;;;18.20;99.90;;;;;;4998237;28;20213;-96
2022/08/09 08:59:26;;;;;;;4.37;3.57;;;18.10;99.90;;;;;;5000396;28;20214;-96
2022/08/09 09:02:23;;;;;;;6.27;4.03;;;18.10;99.90;;;;;;4997672;28;20300;-96
2022/08/09 09:05:01;;;;;;;5.90;4.40;;;18.10;99.90;;;;;;4997147;28;20210;-96
2022/08/09 09:07:45;;;;;;;6.90;4.13;;;18.00;99.90;;;;;;5005497;28;20576;-96
2022/08/09 09:10:20;;;;;;;6.17;4.20;;;18.00;99.90;;;;;;5016769;28;20217;-96
2022/08/09 09:12:58;;;;;;;6.77;3.87;;;18.00;99.90;;;;;;5016864;28;20213;-96
2022/08/09 09:15:39;;;;;;;4.60;3.97;;;18.00;99.90;;;;;;4669973;28;9999908;-96
2022/08/09 09:18:18;;;;;;;4.87;4.00;;;18.00;99.90;;;;;;5017176;28;20271;-96
2022/08/09 09:20:54;;;;;;;5.07;4.10;;;18.00;99.90;;;;;;5016528;28;20213;-96
2022/08/09 09:23:43;;;;;;;4.23;3.80;;;17.90;99.90;;;;;;5017283;28;20623;-96
2022/08/09 09:26:26;;;;;;;4.13;3.70;;;17.90;99.90;;;;;;5018132;28;20217;-96
2022/08/09 09:29:02;;;;;;;5.63;4.30;;;17.80;99.90;;;;;;5017911;28;20581;-96
2022/08/09 09:31:51;;;;;;;6.00;3.93;;;17.70;99.90;;;;;;5019194;28;20205;-96
2022/08/09 09:34:43;;;;;;;4.20;3.80;;;17.60;99.90;;;;;;5019639;28;20237;-96
2022/08/09 09:37:29;;;;;;;5.40;4.17;;;17.50;99.90;;;;;;5027575;28;20200;-96
2022/08/09 09:40:01;;;;;;;4.77;4.27;;;17.50;99.90;;;;;;5037173;28;20232;-96
2022/08/09 09:42:35;;;;;;;6.37;4.17;;;17.50;99.90;;;;;;5036198;28;20268;-96
2022/08/09 09:45:10;;;;;;;6.80;4.77;;;17.40;99.90;;;;;;5046109;28;20253;-96
2022/08/09 09:47:56;;;;;;;6.50;4.50;;;17.40;99.90;;;;;;5057039;28;20260;-96
2022/08/09 09:50:45;;;;;;;6.33;4.07;;;17.40;99.90;;;;;;5056098;28;20209;-96
2022/08/09 09:53:22;;;;;;;6.90;4.30;;;17.40;99.90;;;;;;5056887;28;20257;-95
2022/08/09 09:56:14;;;;;;;6.20;4.00;;;17.40;99.90;;;;;;5046424;28;20264;-96
2022/08/09 09:59:01;;;;;;;6.07;4.43;;;17.40;99.90;;;;;;5041990;28;20235;-96
2022/08/09 10:01:36;;;;;;;6.70;4.40;;;17.40;99.90;;;;;;5047189;28;20208;-96
2022/08/09 10:04:16;;;;;;;6.47;4.30;;;17.30;99.90;;;;;;5057137;28;20325;-96
2022/08/09 10:07:00;;;;;;;8.13;4.50;;;17.40;99.90;;;;;;5057022;28;20224;-96
2022/08/09 10:09:49;;;;;;;4.43;4.03;;;17.30;99.90;;;;;;5056998;28;20212;-96
2022/08/09 10:12:28;;;;;;;5.40;4.20;;;17.30;99.90;;;;;;5056796;28;20197;-96
2022/08/09 10:15:10;;;;;;;8.13;4.73;;;17.30;99.90;;;;;;5057045;28;20232;-96
2022/08/09 10:17:56;;;;;;;5.63;4.07;;;17.30;99.90;;;;;;5056079;28;20193;-96
2022/08/09 10:20:29;;;;;;;6.63;4.73;;;17.30;99.90;;;;;;5042003;28;20212;-96
2022/08/09 10:23:17;;;;;;;5.03;4.17;;;17.20;99.90;;;;;;5042540;28;20205;-96
2022/08/09 10:25:51;;;;;;;4.70;3.93;;;17.20;99.90;;;;;;5040354;28;20204;-96
2022/08/09 10:28:38;;;;;;;5.53;4.53;;;17.20;99.90;;;;;;5037682;28;20259;-96
2022/08/09 10:31:10;;;;;;;5.80;3.93;;;17.20;99.90;;;;;;5036979;28;20205;-96
2022/08/09 10:34:04;;;;;;;7.20;4.23;;;17.20;99.90;;;;;;5045834;28;20217;-96
2022/08/09 10:36:55;;;;;;;6.07;4.00;;;17.10;99.90;;;;;;5054630;28;20212;-96
2022/08/09 10:39:27;;;;;;;6.30;4.27;;;17.10;99.90;;;;;;5034852;28;20194;-96
2022/08/09 10:42:10;;;;;;;8.13;4.80;;;17.10;99.90;;;;;;5035698;28;20216;-96
2022/08/09 10:44:44;;;;;;;9.53;4.50;;;17.10;99.90;;;;;;5036371;28;20257;-95
2022/08/09 10:47:38;;;;;;;5.97;4.53;;;17.10;99.90;;;;;;5036209;28;20249;-96
2022/08/09 10:53:54;;;;;;;8.87;4.13;;;17.10;99.90;;;;;;5016974;28;20626;-95
2022/08/09 10:56:28;;;;;;;6.17;4.23;;;17.10;99.90;;;;;;5017143;28;20248;-96
2022/08/09 10:59:02;;;;;;;6.10;4.50;;;17.10;99.90;;;;;;5017392;28;20216;-96
2022/08/09 11:01:40;;;;;;;5.63;4.23;;;17.10;99.90;;;;;;5016899;28;20213;-96
2022/08/09 11:04:32;;;;;;;6.57;4.77;;;17.10;99.90;;;;;;5016979;28;20213;-96
2022/08/09 11:07:34;;;;;;;6.97;4.47;;;17.10;99.90;;;;;;5017071;28;20217;-96
2022/08/09 11:10:56;;;;;;;6.50;4.50;;;17.00;99.90;;;;;;5015987;28;20205;-96
2022/08/09 11:13:38;;;;;;;5.83;4.30;;;17.00;99.90;;;;;;5017238;28;20218;-96
2022/08/09 11:16:39;;;;;;;5.23;4.63;;;17.00;99.90;;;;;;5016455;28;20265;-96
2022/08/09 11:19:16;;;;;;;5.30;4.80;;;17.00;99.90;;;;;;5021057;28;20576;-96
2022/08/09 11:21:55;;;;;;;6.90;4.43;;;17.00;99.90;;;;;;5024785;28;20213;-96
2022/08/09 11:25:10;;;;;;;5.23;4.60;;;17.00;99.90;;;;;;5036257;28;20232;-96
2022/08/09 11:27:45;;;;;;;8.53;4.60;;;17.10;99.90;;;;;;5036388;28;20233;-95
2022/08/09 11:30:38;;;;;;;7.07;4.67;;;17.10;99.90;;;;;;5034558;28;20257;-96
2022/08/09 11:33:44;;;;;;;6.50;4.43;;;17.00;99.90;;;;;;5038151;28;20223;-96
2022/08/09 11:36:20;;;;;;;5.33;4.83;;;16.90;99.90;;;;;;5039507;28;20237;-96
2022/08/09 11:39:06;;;;;;;6.40;4.63;;;16.90;99.90;;;;;;5025299;28;20243;-95
2022/08/09 11:41:42;;;;;;;7.33;5.47;;;16.90;99.90;;;;;;5019045;28;20213;-96
2022/08/09 11:44:15;;;;;;;8.97;5.13;;;16.80;99.90;;;;;;5020449;28;20300;-96
2022/08/09 11:46:53;;;;;;;6.53;5.20;;;16.80;99.90;;;;;;5019638;28;20228;-96
2022/08/09 11:50:01;;;;;;;9.10;5.77;;;16.80;99.90;;;;;;5028934;28;20231;-96
2022/08/09 11:53:20;;;;;;;7.57;5.83;;;16.70;99.90;;;;;;5000870;28;20296;-96
2022/08/09 11:56:28;;;;;;;6.20;5.60;;;16.70;99.90;;;;;;5020652;28;20241;-95
2022/08/09 11:59:30;;;;;;;9.20;5.43;;;16.70;99.90;;;;;;5020815;28;20204;-96
2022/08/09 12:02:03;;;;;;;7.17;6.20;;;16.70;99.90;;;;;;5020179;28;20208;-94
2022/08/09 12:04:55;;;;;;;7.30;6.47;;;16.70;99.90;;;;;;5019751;28;20273;-95
2022/08/09 12:07:35;;;;;;;7.70;6.47;;;16.60;99.90;;;;;;5019812;28;20605;-96
2022/08/09 12:10:13;;;;;;;10.50;5.70;;;16.60;99.90;;;;;;5020263;28;20214;-96
2022/08/09 12:13:05;;;;;;;7.20;5.67;;;16.50;99.90;;;;;;5020281;28;20303;-96
2022/08/09 12:16:08;;;;;;;8.13;5.77;;;16.50;99.90;;;;;;5030968;28;20237;-96
2022/08/09 12:19:01;;;;;;;9.33;5.57;;;16.50;99.90;;;;;;5039200;28;20211;-96
2022/08/09 12:21:39;;;;;;;7.83;6.20;;;16.50;99.90;;;;;;5039980;28;20239;-96
2022/08/09 12:24:25;;;;;;;9.23;5.83;;;16.50;99.90;;;;;;5002059;28;20241;-96
2022/08/09 12:26:59;;;;;;;7.37;6.53;;;16.50;99.90;;;;;;5011118;28;20537;-96
2022/08/09 12:29:56;;;;;;;8.90;6.90;;;16.60;99.90;;;;;;5018224;28;20253;-96
2022/08/09 12:33:03;;;;;;;10.27;6.77;;;16.60;99.90;;;;;;5036249;28;20398;-96
2022/08/09 12:35:36;;;;;;;7.80;6.83;;;16.60;99.90;;;;;;5037709;28;20216;-95
2022/08/09 12:38:22;;;;;;;7.30;6.53;;;16.60;99.90;;;;;;5038261;28;20240;-96
2022/08/09 12:41:09;;;;;;;9.93;7.33;;;16.60;99.90;;;;;;5037505;28;20212;-96
2022/08/09 12:43:42;;;;;;;9.87;8.10;;;16.60;99.90;;;;;;5037730;28;20221;-96
2022/08/09 12:46:34;;;;;;;12.40;7.83;;;16.50;99.90;;;;;;5038467;28;20198;-96
2022/08/09 12:49:08;;;;;;;9.10;8.10;;;16.40;99.90;;;;;;5038303;28;20194;-96
2022/08/09 12:51:56;;;;;;;9.50;8.50;;;16.30;99.90;;;;;;5036992;28;20254;-96
2022/08/09 12:54:50;;;;;;;10.13;8.63;;;16.30;99.90;;;;;;5037489;28;20225;-96
2022/08/09 12:57:42;;;;;;;10.87;8.87;;;16.30;99.90;;;;;;5037557;28;20253;-95
2022/08/09 13:00:20;;;;;;;13.27;9.40;;;16.20;99.90;;;;;;5022793;28;20662;-96
2022/08/09 13:02:56;;;;;;;9.33;7.70;;;16.20;99.90;;;;;;5019466;28;20273;-96
2022/08/09 13:05:42;;;;;;;10.77;8.17;;;16.20;99.90;;;;;;5018824;28;20209;-96
2022/08/09 13:08:34;;;;;;;14.90;8.10;;;16.30;99.90;;;;;;5017914;28;20202;-95
2022/08/09 13:11:13;;;;;;;9.80;8.33;;;16.20;99.90;;;;;;5017790;28;20258;-95
2022/08/09 13:13:57;;;;;;;10.73;7.60;;;16.30;99.90;;;;;;5018587;28;20237;-95
2022/08/09 13:16:50;;;;;;;9.63;8.13;;;16.30;99.90;;;;;;5017831;28;20676;-96
2022/08/09 13:19:29;;;;;;;12.33;8.50;;;16.30;99.90;;;;;;5018255;28;20683;-96
2022/08/09 13:22:24;;;;;;;11.77;8.47;;;16.20;99.90;;;;;;5017289;28;20220;-96
2022/08/09 13:25:15;;;;;;;11.13;8.70;;;16.30;99.90;;;;;;5017175;28;20227;-96
2022/08/09 13:27:48;;;;;;;11.03;8.13;;;16.30;99.90;;;;;;5017827;28;20285;-96
2022/08/09 13:30:26;;;;;;;10.87;8.63;;;16.30;99.90;;;;;;5015844;28;20207;-96
2022/08/09 13:33:25;;;;;;;11.33;9.07;;;16.30;99.90;;;;;;5018070;28;20328;-96
2022/08/09 13:36:17;;;;;;;9.53;8.30;;;16.40;99.90;;;;;;5019303;28;20305;-96
2022/08/09 13:39:10;;;;;;;9.60;8.37;;;16.40;99.90;;;;;;5017114;28;20714;-95
2022/08/09 13:42:02;;;;;;;10.17;9.07;;;16.40;99.90;;;;;;5019719;28;20210;-94
2022/08/09 13:44:44;;;;;;;12.63;8.60;;;16.50;99.90;;;;;;5022032;28;20646;-95
2022/08/09 13:47:18;;;;;;;13.10;8.90;;;16.40;99.90;;;;;;5019023;28;20213;-96
2022/08/09 13:50:11;;;;;;;11.23;8.50;;;16.30;99.90;;;;;;5019544;28;20233;-95
2022/08/09 13:53:01;;;;;;;10.83;9.27;;;16.40;99.90;;;;;;5017911;28;20217;-94
2022/08/09 13:55:40;;;;;;;11.80;9.00;;;16.40;99.90;;;;;;5018925;28;20287;-94
2022/08/09 14:01:02;;;;;;;10.97;8.60;;;16.50;99.90;;;;;;5017401;28;20202;-94
2022/08/09 14:03:37;;;;;;;11.87;8.93;;;16.50;99.90;;;;;;5018037;28;20213;-95
2022/08/09 14:06:28;;;;;;;9.63;8.27;;;16.50;99.90;;;;;;5017966;28;20205;-94
2022/08/09 14:09:01;;;;;;;11.27;8.33;;;16.60;99.90;;;;;;5017550;28;20285;-94
2022/08/09 14:11:35;;;;;;;8.80;7.70;;;16.70;99.90;;;;;;5016557;28;20732;-94